sensor_id;sensor_type;location;lat;lon;timestamp;pressure;altitude;pressure_sealevel;temperature;humidity
32243;BME280;18731;42.830;24.390;2022-10-23T03:01:12;95018.19;;;11.29;79.32
32243;BME280;18731;42.830;24.390;2022-10-23T03:04:06;95021.00;;;11.33;79.06
32243;BME280;18731;42.830;24.390;2022-10-23T03:06:34;95003.91;;;11.25;79.24
32243;BME280;18731;42.830;24.390;2022-10-23T03:09:06;95023.66;;;11.41;79.19
32243;BME280;18731;42.830;24.390;2022-10-23T03:11:31;95015.47;;;11.38;78.79
32243;BME280;18731;42.830;24.390;2022-10-23T03:13:57;95012.19;;;11.41;78.30
32243;BME280;18731;42.830;24.390;2022-10-23T03:16:23;95020.16;;;11.49;78.34
32243;BME280;18731;42.830;24.390;2022-10-23T03:18:49;95013.88;;;11.45;78.44
32243;BME280;18731;42.830;24.390;2022-10-23T03:21:15;95003.38;;;11.40;78.32
32243;BME280;18731;42.830;24.390;2022-10-23T03:23:40;95006.34;;;11.47;77.99
32243;BME280;18731;42.830;24.390;2022-10-23T03:26:06;95017.50;;;11.49;78.52
32243;BME280;18731;42.830;24.390;2022-10-23T03:28:32;95020.31;;;11.53;78.36
32243;BME280;18731;42.830;24.390;2022-10-23T03:31:00;95000.56;;;11.37;78.82
32243;BME280;18731;42.830;24.390;2022-10-23T03:33:27;95017.34;;;11.46;78.92
32243;BME280;18731;42.830;24.390;2022-10-23T03:35:53;95010.47;;;11.36;78.90
32243;BME280;18731;42.830;24.390;2022-10-23T03:38:18;95020.16;;;11.49;78.56
32243;BME280;18731;42.830;24.390;2022-10-23T03:40:44;95032.88;;;11.52;78.83
32243;BME280;18731;42.830;24.390;2022-10-23T03:43:09;95021.41;;;11.52;78.71
32243;BME280;18731;42.830;24.390;2022-10-23T03:45:35;95011.38;;;11.40;78.17
32243;BME280;18731;42.830;24.390;2022-10-23T03:48:04;95042.47;;;11.53;78.09
32243;BME280;18731;42.830;24.390;2022-10-23T03:50:29;95040.75;;;11.49;78.33
32243;BME280;18731;42.830;24.390;2022-10-23T03:52:55;95043.28;;;11.45;78.19
32243;BME280;18731;42.830;24.390;2022-10-23T03:55:21;95035.91;;;11.42;78.09
32243;BME280;18731;42.830;24.390;2022-10-23T03:57:46;95038.75;;;11.37;78.21
32243;BME280;18731;42.830;24.390;2022-10-23T04:00:12;95037.53;;;11.26;78.62
32243;BME280;18731;42.830;24.390;2022-10-23T04:02:38;95033.31;;;11.08;78.48
32243;BME280;18731;42.830;24.390;2022-10-23T04:05:04;95056.25;;;11.17;78.36
32243;BME280;18731;42.830;24.390;2022-10-23T04:07:30;95065.84;;;11.10;79.14
32243;BME280;18731;42.830;24.390;2022-10-23T04:09:55;95075.91;;;11.13;79.01
32243;BME280;18731;42.830;24.390;2022-10-23T04:12:21;95069.16;;;11.07;78.63
32243;BME280;18731;42.830;24.390;2022-10-23T04:14:47;95065.72;;;10.89;78.99
32243;BME280;18731;42.830;24.390;2022-10-23T04:17:12;95075.59;;;10.88;78.66
32243;BME280;18731;42.830;24.390;2022-10-23T04:19:38;95078.44;;;10.83;79.54
32243;BME280;18731;42.830;24.390;2022-10-23T04:22:03;95067.28;;;10.73;80.34
32243;BME280;18731;42.830;24.390;2022-10-23T04:24:29;95092.72;;;10.87;80.43
32243;BME280;18731;42.830;24.390;2022-10-23T04:26:55;95093.81;;;10.69;81.36
32243;BME280;18731;42.830;24.390;2022-10-23T04:29:20;95105.44;;;10.73;81.75
32243;BME280;18731;42.830;24.390;2022-10-23T04:31:49;95104.97;;;10.80;81.67
32243;BME280;18731;42.830;24.390;2022-10-23T04:34:16;95091.16;;;10.78;81.37
32243;BME280;18731;42.830;24.390;2022-10-23T04:36:42;95092.88;;;10.82;81.20
32243;BME280;18731;42.830;24.390;2022-10-23T04:39:09;95037.91;;;10.47;81.02
32243;BME280;18731;42.830;24.390;2022-10-23T04:41:34;95098.22;;;10.82;80.89
32243;BME280;18731;42.830;24.390;2022-10-23T04:44:01;95076.72;;;10.70;80.69
32243;BME280;18731;42.830;24.390;2022-10-23T04:46:27;95098.69;;;10.76;80.63
32243;BME280;18731;42.830;24.390;2022-10-23T04:48:52;95097.59;;;10.68;80.51
32243;BME280;18731;42.830;24.390;2022-10-23T04:51:18;95084.25;;;10.59;81.22
32243;BME280;18731;42.830;24.390;2022-10-23T04:53:43;95084.72;;;10.70;80.97
32243;BME280;18731;42.830;24.390;2022-10-23T04:56:13;95068.84;;;10.65;80.89
32243;BME280;18731;42.830;24.390;2022-10-23T04:58:40;95062.88;;;10.59;80.71
32243;BME280;18731;42.830;24.390;2022-10-23T05:01:07;95085.81;;;10.69;80.85
32243;BME280;18731;42.830;24.390;2022-10-23T05:03:35;95099.78;;;10.66;80.58
32243;BME280;18731;42.830;24.390;2022-10-23T05:06:01;95106.53;;;10.72;80.32
32243;BME280;18731;42.830;24.390;2022-10-23T05:08:27;95117.22;;;10.72;79.80
32243;BME280;18731;42.830;24.390;2022-10-23T05:10:52;95087.22;;;10.58;79.46
32243;BME280;18731;42.830;24.390;2022-10-23T05:13:19;95093.81;;;10.69;79.13
32243;BME280;18731;42.830;24.390;2022-10-23T05:15:50;95087.53;;;10.65;79.17
32243;BME280;18731;42.830;24.390;2022-10-23T05:18:20;95085.81;;;10.52;80.69
32243;BME280;18731;42.830;24.390;2022-10-23T05:20:49;95106.38;;;10.51;80.50
32243;BME280;18731;42.830;24.390;2022-10-23T05:23:17;95115.63;;;10.45;80.27
32243;BME280;18731;42.830;24.390;2022-10-23T05:25:45;95126.94;;;10.51;80.57
32243;BME280;18731;42.830;24.390;2022-10-23T05:28:11;95125.38;;;10.58;80.77
32243;BME280;18731;42.830;24.390;2022-10-23T05:30:37;95124.28;;;10.68;80.85
32243;BME280;18731;42.830;24.390;2022-10-23T05:33:03;95128.38;;;10.74;81.04
32243;BME280;18731;42.830;24.390;2022-10-23T05:35:29;95129.63;;;10.77;81.10
32243;BME280;18731;42.830;24.390;2022-10-23T05:37:56;95129.03;;;10.88;80.99
32243;BME280;18731;42.830;24.390;2022-10-23T05:40:24;95130.75;;;11.02;81.32
32243;BME280;18731;42.830;24.390;2022-10-23T05:42:50;95116.44;;;10.98;81.69
32243;BME280;18731;42.830;24.390;2022-10-23T05:45:15;95134.84;;;11.08;81.21
32243;BME280;18731;42.830;24.390;2022-10-23T05:47:45;95151.97;;;11.24;79.96
32243;BME280;18731;42.830;24.390;2022-10-23T05:50:10;95157.44;;;11.36;79.84
32243;BME280;18731;42.830;24.390;2022-10-23T05:52:36;95145.03;;;11.40;80.53
32243;BME280;18731;42.830;24.390;2022-10-23T05:55:02;95156.34;;;11.54;80.74
32243;BME280;18731;42.830;24.390;2022-10-23T05:57:27;95159.13;;;11.67;80.85
32243;BME280;18731;42.830;24.390;2022-10-23T05:59:54;95142.63;;;11.65;80.43
32243;BME280;18731;42.830;24.390;2022-10-23T06:02:19;95159.13;;;11.84;80.70
32243;BME280;18731;42.830;24.390;2022-10-23T06:04:45;95113.56;;;11.54;77.68
32243;BME280;18731;42.830;24.390;2022-10-23T06:07:10;95172.13;;;12.03;78.06
32243;BME280;18731;42.830;24.390;2022-10-23T06:09:36;95172.75;;;12.08;79.81
32243;BME280;18731;42.830;24.390;2022-10-23T06:12:02;95173.22;;;12.10;77.68
32243;BME280;18731;42.830;24.390;2022-10-23T06:14:27;95156.88;;;12.03;77.54
32243;BME280;18731;42.830;24.390;2022-10-23T06:16:53;95182.13;;;12.23;77.85
32243;BME280;18731;42.830;24.390;2022-10-23T06:19:19;95180.84;;;12.29;76.09
32243;BME280;18731;42.830;24.390;2022-10-23T06:21:44;95170.28;;;12.33;77.25
32243;BME280;18731;42.830;24.390;2022-10-23T06:24:10;95155.50;;;12.27;78.08
32243;BME280;18731;42.830;24.390;2022-10-23T06:26:35;95177.50;;;12.41;78.67
32243;BME280;18731;42.830;24.390;2022-10-23T06:29:02;95155.78;;;12.34;78.39
32243;BME280;18731;42.830;24.390;2022-10-23T06:31:27;95174.28;;;12.56;78.19
32243;BME280;18731;42.830;24.390;2022-10-23T06:33:54;95191.81;;;12.74;76.81
32243;BME280;18731;42.830;24.390;2022-10-23T06:36:20;95189.09;;;12.83;76.26
32243;BME280;18731;42.830;24.390;2022-10-23T06:38:46;95178.03;;;12.84;75.63
32243;BME280;18731;42.830;24.390;2022-10-23T06:41:18;95197.63;;;13.06;75.47
32243;BME280;18731;42.830;24.390;2022-10-23T06:43:46;95175.63;;;12.92;74.02
32243;BME280;18731;42.830;24.390;2022-10-23T06:46:13;95185.69;;;13.03;72.56
32243;BME280;18731;42.830;24.390;2022-10-23T06:48:40;95209.00;;;13.32;72.89
32243;BME280;18731;42.830;24.390;2022-10-23T06:51:08;95212.06;;;13.43;73.09
32243;BME280;18731;42.830;24.390;2022-10-23T06:53:34;95198.19;;;13.41;72.89
32243;BME280;18731;42.830;24.390;2022-10-23T06:56:02;95197.25;;;13.58;72.88
32243;BME280;18731;42.830;24.390;2022-10-23T06:58:28;95213.47;;;13.82;73.20
32243;BME280;18731;42.830;24.390;2022-10-23T07:00:55;95221.09;;;13.92;72.50
32243;BME280;18731;42.830;24.390;2022-10-23T07:03:20;95210.81;;;13.94;70.31
32243;BME280;18731;42.830;24.390;2022-10-23T07:05:46;95225.28;;;14.14;69.21
32243;BME280;18731;42.830;24.390;2022-10-23T07:08:12;95227.88;;;14.23;69.41
32243;BME280;18731;42.830;24.390;2022-10-23T07:10:39;95226.91;;;14.39;69.53
32243;BME280;18731;42.830;24.390;2022-10-23T07:13:08;95227.97;;;14.47;70.87
32243;BME280;18731;42.830;24.390;2022-10-23T07:15:35;95233.13;;;14.52;69.95
32243;BME280;18731;42.830;24.390;2022-10-23T07:18:01;95234.81;;;14.69;68.44
32243;BME280;18731;42.830;24.390;2022-10-23T07:20:26;95235.81;;;14.76;67.23
32243;BME280;18731;42.830;24.390;2022-10-23T07:22:53;95237.59;;;14.85;67.42
32243;BME280;18731;42.830;24.390;2022-10-23T07:25:21;95231.56;;;14.88;70.24
32243;BME280;18731;42.830;24.390;2022-10-23T07:27:47;95234.00;;;15.05;68.14
32243;BME280;18731;42.830;24.390;2022-10-23T07:30:14;95229.06;;;15.19;67.21
32243;BME280;18731;42.830;24.390;2022-10-23T07:32:40;95211.38;;;15.06;67.23
32243;BME280;18731;42.830;24.390;2022-10-23T07:35:07;95193.34;;;14.94;64.91
32243;BME280;18731;42.830;24.390;2022-10-23T07:37:33;95227.47;;;15.30;66.31
32243;BME280;18731;42.830;24.390;2022-10-23T07:39:58;95226.34;;;15.31;66.07
32243;BME280;18731;42.830;24.390;2022-10-23T07:42:24;95221.88;;;15.23;65.48
32243;BME280;18731;42.830;24.390;2022-10-23T07:44:50;95231.50;;;15.36;65.23
32243;BME280;18731;42.830;24.390;2022-10-23T07:47:15;95246.59;;;15.53;64.01
32243;BME280;18731;42.830;24.390;2022-10-23T07:49:41;95250.44;;;15.64;63.68
32243;BME280;18731;42.830;24.390;2022-10-23T07:52:07;95239.44;;;15.69;63.68
32243;BME280;18731;42.830;24.390;2022-10-23T07:54:32;95235.59;;;15.98;62.75
32243;BME280;18731;42.830;24.390;2022-10-23T07:56:58;95245.84;;;16.36;62.01
32243;BME280;18731;42.830;24.390;2022-10-23T07:59:24;95256.22;;;16.50;60.89
32243;BME280;18731;42.830;24.390;2022-10-23T08:01:51;95241.09;;;16.61;60.66
32243;BME280;18731;42.830;24.390;2022-10-23T08:04:17;95232.16;;;16.73;60.48
32243;BME280;18731;42.830;24.390;2022-10-23T08:06:43;95190.66;;;16.62;60.94
32243;BME280;18731;42.830;24.390;2022-10-23T08:09:09;95228.06;;;16.95;60.15
32243;BME280;18731;42.830;24.390;2022-10-23T08:11:35;95232.06;;;16.85;60.47
32243;BME280;18731;42.830;24.390;2022-10-23T08:14:03;95235.09;;;16.99;60.20
32243;BME280;18731;42.830;24.390;2022-10-23T08:16:30;95215.78;;;16.97;59.62
32243;BME280;18731;42.830;24.390;2022-10-23T08:18:56;95232.66;;;17.10;59.60
32243;BME280;18731;42.830;24.390;2022-10-23T08:21:22;95219.78;;;17.39;59.77
32243;BME280;18731;42.830;24.390;2022-10-23T08:23:48;95195.94;;;17.06;59.25
32243;BME280;18731;42.830;24.390;2022-10-23T08:26:17;95226.66;;;17.36;59.34
32243;BME280;18731;42.830;24.390;2022-10-23T08:28:42;95210.69;;;17.47;58.25
32243;BME280;18731;42.830;24.390;2022-10-23T08:31:11;95221.03;;;17.99;57.91
32243;BME280;18731;42.830;24.390;2022-10-23T08:33:37;95223.84;;;18.68;55.20
32243;BME280;18731;42.830;24.390;2022-10-23T08:36:03;95232.41;;;18.70;54.61
32243;BME280;18731;42.830;24.390;2022-10-23T08:38:29;95232.28;;;18.62;55.54
32243;BME280;18731;42.830;24.390;2022-10-23T08:40:55;95206.78;;;18.63;56.03
32243;BME280;18731;42.830;24.390;2022-10-23T08:43:46;95222.56;;;19.07;55.86
32243;BME280;18731;42.830;24.390;2022-10-23T08:46:16;95212.44;;;19.57;52.94
32243;BME280;18731;42.830;24.390;2022-10-23T08:48:50;95215.16;;;19.57;50.84
32243;BME280;18731;42.830;24.390;2022-10-23T08:51:28;95213.53;;;19.82;50.84
32243;BME280;18731;42.830;24.390;2022-10-23T08:54:07;95222.88;;;20.22;49.52
32243;BME280;18731;42.830;24.390;2022-10-23T08:56:39;95209.31;;;20.59;49.06
32243;BME280;18731;42.830;24.390;2022-10-23T08:59:35;95214.41;;;21.08;48.70
32243;BME280;18731;42.830;24.390;2022-10-23T09:04:33;95213.94;;;21.58;45.92
32243;BME280;18731;42.830;24.390;2022-10-23T09:10:09;95223.38;;;21.78;44.74
32243;BME280;18731;42.830;24.390;2022-10-23T09:12:41;95212.53;;;21.89;44.41
32243;BME280;18731;42.830;24.390;2022-10-23T09:15:41;95204.78;;;21.91;43.73
32243;BME280;18731;42.830;24.390;2022-10-23T09:18:13;95211.09;;;22.12;43.72
32243;BME280;18731;42.830;24.390;2022-10-23T09:20:41;95206.81;;;22.08;43.74
32243;BME280;18731;42.830;24.390;2022-10-23T09:23:22;95207.22;;;22.13;44.14
32243;BME280;18731;42.830;24.390;2022-10-23T09:25:50;95207.97;;;22.07;43.25
32243;BME280;18731;42.830;24.390;2022-10-23T09:28:28;95204.13;;;22.26;43.89
32243;BME280;18731;42.830;24.390;2022-10-23T09:31:06;95192.81;;;22.06;43.11
32243;BME280;18731;42.830;24.390;2022-10-23T09:33:32;95194.75;;;22.05;43.41
32243;BME280;18731;42.830;24.390;2022-10-23T09:36:14;95202.53;;;22.07;43.14
32243;BME280;18731;42.830;24.390;2022-10-23T09:41:49;95191.75;;;22.57;42.54
32243;BME280;18731;42.830;24.390;2022-10-23T09:44:27;95195.69;;;22.81;41.54
32243;BME280;18731;42.830;24.390;2022-10-23T09:46:58;95199.38;;;21.98;41.98
32243;BME280;18731;42.830;24.390;2022-10-23T09:52:04;95187.84;;;22.36;42.74
32243;BME280;18731;42.830;24.390;2022-10-23T09:54:43;95178.13;;;22.35;41.96
32243;BME280;18731;42.830;24.390;2022-10-23T09:57:23;95137.34;;;22.35;41.86
32243;BME280;18731;42.830;24.390;2022-10-23T09:59:56;95173.88;;;22.70;41.89
32243;BME280;18731;42.830;24.390;2022-10-23T10:02:27;95171.97;;;22.85;41.30
32243;BME280;18731;42.830;24.390;2022-10-23T10:04:53;95173.88;;;22.70;40.63
32243;BME280;18731;42.830;24.390;2022-10-23T10:07:25;95166.88;;;22.40;40.92
32243;BME280;18731;42.830;24.390;2022-10-23T10:09:52;95156.38;;;22.64;40.02
32243;BME280;18731;42.830;24.390;2022-10-23T10:12:45;95168.41;;;22.38;40.10
32243;BME280;18731;42.830;24.390;2022-10-23T10:25:41;95144.50;;;23.88;37.94
32243;BME280;18731;42.830;24.390;2022-10-23T10:28:30;95136.53;;;24.18;37.19
32243;BME280;18731;42.830;24.390;2022-10-23T10:31:34;95139.13;;;24.43;36.28
32243;BME280;18731;42.830;24.390;2022-10-23T10:37:16;95132.31;;;24.10;36.74
32243;BME280;18731;42.830;24.390;2022-10-23T10:40:05;95129.22;;;24.04;37.44
32243;BME280;18731;42.830;24.390;2022-10-23T10:45:32;95123.53;;;24.44;36.03
32243;BME280;18731;42.830;24.390;2022-10-23T10:51:35;95112.84;;;24.63;35.52
32243;BME280;18731;42.830;24.390;2022-10-23T10:56:36;95104.31;;;24.58;35.81
32243;BME280;18731;42.830;24.390;2022-10-23T10:59:20;95114.91;;;24.49;34.93
32243;BME280;18731;42.830;24.390;2022-10-23T11:04:53;95121.66;;;24.82;35.40
32243;BME280;18731;42.830;24.390;2022-10-23T11:07:24;95122.22;;;24.62;35.72
32243;BME280;18731;42.830;24.390;2022-10-23T11:09:52;95114.91;;;24.49;32.75
32243;BME280;18731;42.830;24.390;2022-10-23T11:12:22;95115.72;;;23.80;34.92
32243;BME280;18731;42.830;24.390;2022-10-23T11:14:49;95092.75;;;23.77;34.45
32243;BME280;18731;42.830;24.390;2022-10-23T11:17:24;95097.78;;;23.82;34.17
32243;BME280;18731;42.830;24.390;2022-10-23T11:29:00;95093.63;;;23.56;35.90
32243;BME280;18731;42.830;24.390;2022-10-23T11:31:45;95093.91;;;23.83;36.52
32243;BME280;18731;42.830;24.390;2022-10-23T11:36:55;95088.25;;;24.15;35.74
32243;BME280;18731;42.830;24.390;2022-10-23T11:39:28;95067.91;;;24.23;33.35
32243;BME280;18731;42.830;24.390;2022-10-23T11:41:59;95073.00;;;24.21;34.72
32243;BME280;18731;42.830;24.390;2022-10-23T11:44:41;95067.78;;;23.86;35.14
32243;BME280;18731;42.830;24.390;2022-10-23T11:47:32;95070.97;;;23.73;35.73
32243;BME280;18731;42.830;24.390;2022-10-23T11:50:12;95062.47;;;23.64;34.77
32243;BME280;18731;42.830;24.390;2022-10-23T11:52:59;95073.81;;;23.38;33.18
32243;BME280;18731;42.830;24.390;2022-10-23T11:55:28;95074.22;;;23.33;33.33
32243;BME280;18731;42.830;24.390;2022-10-23T12:00:34;95069.53;;;23.44;32.93
32243;BME280;18731;42.830;24.390;2022-10-23T12:03:03;95080.00;;;23.60;32.39
32243;BME280;18731;42.830;24.390;2022-10-23T12:05:35;95057.03;;;23.61;32.03
32243;BME280;18731;42.830;24.390;2022-10-23T12:08:07;95056.94;;;23.79;32.55
32243;BME280;18731;42.830;24.390;2022-10-23T12:10:46;95042.78;;;23.98;31.41
32243;BME280;18731;42.830;24.390;2022-10-23T12:16:05;95058.22;;;23.56;31.58
32243;BME280;18731;42.830;24.390;2022-10-23T12:18:48;95053.78;;;23.84;31.77
32243;BME280;18731;42.830;24.390;2022-10-23T12:21:22;95045.97;;;23.89;31.07
32243;BME280;18731;42.830;24.390;2022-10-23T12:27:08;95066.59;;;24.46;30.48
32243;BME280;18731;42.830;24.390;2022-10-23T12:30:14;95060.94;;;24.67;30.74
32243;BME280;18731;42.830;24.390;2022-10-23T12:36:14;95071.19;;;25.00;30.50
32243;BME280;18731;42.830;24.390;2022-10-23T12:38:21;95060.91;;;25.46;29.69
32243;BME280;18731;42.830;24.390;2022-10-23T12:41:09;95073.28;;;25.23;29.72
32243;BME280;18731;42.830;24.390;2022-10-23T12:43:36;95072.94;;;25.18;30.12
32243;BME280;18731;42.830;24.390;2022-10-23T12:46:38;95062.22;;;24.96;30.12
32243;BME280;18731;42.830;24.390;2022-10-23T12:49:19;95025.25;;;24.88;30.36
32243;BME280;18731;42.830;24.390;2022-10-23T12:51:54;95058.56;;;25.44;29.45
32243;BME280;18731;42.830;24.390;2022-10-23T12:54:21;95063.09;;;24.86;29.10
32243;BME280;18731;42.830;24.390;2022-10-23T12:56:47;95070.81;;;24.98;29.93
32243;BME280;18731;42.830;24.390;2022-10-23T12:59:23;95065.28;;;25.06;30.07
32243;BME280;18731;42.830;24.390;2022-10-23T13:01:50;95072.59;;;25.46;29.12
32243;BME280;18731;42.830;24.390;2022-10-23T13:04:43;95077.66;;;25.82;28.99
32243;BME280;18731;42.830;24.390;2022-10-23T13:07:08;95073.44;;;26.04;28.73
32243;BME280;18731;42.830;24.390;2022-10-23T13:09:38;95081.56;;;25.81;28.76
32243;BME280;18731;42.830;24.390;2022-10-23T13:12:07;95041.41;;;24.72;30.11
32243;BME280;18731;42.830;24.390;2022-10-23T13:15:15;95079.34;;;24.04;31.48
32243;BME280;18731;42.830;24.390;2022-10-23T13:17:44;95085.56;;;23.21;33.10
32243;BME280;18731;42.830;24.390;2022-10-23T13:20:25;95083.31;;;22.59;33.63
32243;BME280;18731;42.830;24.390;2022-10-23T13:31:06;95064.13;;;20.24;38.63
32243;BME280;18731;42.830;24.390;2022-10-23T13:33:48;95082.50;;;19.98;40.55
32243;BME280;18731;42.830;24.390;2022-10-23T13:38:43;95085.97;;;19.57;41.13
32243;BME280;18731;42.830;24.390;2022-10-23T13:41:18;95083.69;;;19.30;42.15
32243;BME280;18731;42.830;24.390;2022-10-23T13:43:45;95079.31;;;19.21;41.70
32243;BME280;18731;42.830;24.390;2022-10-23T13:46:16;95079.09;;;19.04;42.35
32243;BME280;18731;42.830;24.390;2022-10-23T13:48:42;95067.28;;;18.85;43.18
32243;BME280;18731;42.830;24.390;2022-10-23T13:51:20;95087.81;;;18.90;42.52
32243;BME280;18731;42.830;24.390;2022-10-23T13:53:46;95064.44;;;18.75;43.15
32243;BME280;18731;42.830;24.390;2022-10-23T13:56:14;95086.78;;;18.72;44.30
32243;BME280;18731;42.830;24.390;2022-10-23T13:58:40;95087.09;;;18.67;43.24
32243;BME280;18731;42.830;24.390;2022-10-23T14:01:15;95080.41;;;18.60;44.91
32243;BME280;18731;42.830;24.390;2022-10-23T14:03:43;95093.09;;;18.56;44.02
32243;BME280;18731;42.830;24.390;2022-10-23T14:06:09;95081.72;;;18.44;44.36
32243;BME280;18731;42.830;24.390;2022-10-23T14:08:34;95075.63;;;18.24;44.22
32243;BME280;18731;42.830;24.390;2022-10-23T14:11:00;95064.88;;;18.27;45.44
32243;BME280;18731;42.830;24.390;2022-10-23T14:13:26;95081.59;;;18.14;47.44
32243;BME280;18731;42.830;24.390;2022-10-23T14:15:52;95078.53;;;18.15;46.72
32243;BME280;18731;42.830;24.390;2022-10-23T14:18:18;95080.75;;;18.10;47.51
32243;BME280;18731;42.830;24.390;2022-10-23T14:20:44;95081.34;;;17.99;47.22
32243;BME280;18731;42.830;24.390;2022-10-23T14:23:10;95085.44;;;18.13;47.51
32243;BME280;18731;42.830;24.390;2022-10-23T14:25:35;95090.59;;;17.98;47.64
32243;BME280;18731;42.830;24.390;2022-10-23T14:28:01;95093.53;;;17.90;47.98
32243;BME280;18731;42.830;24.390;2022-10-23T14:30:26;95098.28;;;17.96;47.34
32243;BME280;18731;42.830;24.390;2022-10-23T14:32:52;95102.28;;;17.83;47.44
32243;BME280;18731;42.830;24.390;2022-10-23T14:35:18;95075.75;;;17.66;47.79
32243;BME280;18731;42.830;24.390;2022-10-23T14:37:43;95082.19;;;17.61;47.76
32243;BME280;18731;42.830;24.390;2022-10-23T14:40:09;95103.78;;;17.61;48.93
32243;BME280;18731;42.830;24.390;2022-10-23T14:42:35;95105.72;;;17.42;49.01
32243;BME280;18731;42.830;24.390;2022-10-23T14:45:01;95096.38;;;17.35;48.93
32243;BME280;18731;42.830;24.390;2022-10-23T14:47:27;95075.91;;;17.15;50.35
32243;BME280;18731;42.830;24.390;2022-10-23T14:49:53;95087.69;;;17.26;50.77
32243;BME280;18731;42.830;24.390;2022-10-23T14:52:19;95093.81;;;17.23;51.08
32243;BME280;18731;42.830;24.390;2022-10-23T14:54:44;95087.34;;;17.09;51.22
32243;BME280;18731;42.830;24.390;2022-10-23T14:57:10;95086.84;;;17.03;51.26
32243;BME280;18731;42.830;24.390;2022-10-23T14:59:40;95088.75;;;17.02;52.60
32243;BME280;18731;42.830;24.390;2022-10-23T15:02:07;95099.75;;;16.94;48.57
32243;BME280;18731;42.830;24.390;2022-10-23T15:04:33;95081.97;;;16.74;50.96
32243;BME280;18731;42.830;24.390;2022-10-23T15:06:59;95071.03;;;16.66;48.75
32243;BME280;18731;42.830;24.390;2022-10-23T15:09:24;95075.56;;;16.62;52.81
32243;BME280;18731;42.830;24.390;2022-10-23T15:11:50;95094.84;;;16.64;53.19
32243;BME280;18731;42.830;24.390;2022-10-23T15:14:16;95094.44;;;16.47;53.56
32243;BME280;18731;42.830;24.390;2022-10-23T15:16:41;95104.53;;;16.50;53.55
32243;BME280;18731;42.830;24.390;2022-10-23T15:19:09;95103.41;;;16.35;54.54
32243;BME280;18731;42.830;24.390;2022-10-23T15:21:35;95101.00;;;16.14;55.17
32243;BME280;18731;42.830;24.390;2022-10-23T15:24:01;95102.72;;;16.06;55.73
32243;BME280;18731;42.830;24.390;2022-10-23T15:26:27;95097.06;;;15.80;56.49
32243;BME280;18731;42.830;24.390;2022-10-23T15:28:58;95094.88;;;15.70;56.35
32243;BME280;18731;42.830;24.390;2022-10-23T15:33:53;95096.59;;;15.50;55.73
32243;BME280;18731;42.830;24.390;2022-10-23T15:36:19;95085.03;;;15.34;56.93
32243;BME280;18731;42.830;24.390;2022-10-23T15:38:45;95108.88;;;15.35;57.30
32243;BME280;18731;42.830;24.390;2022-10-23T15:41:20;95112.56;;;15.15;57.37
32243;BME280;18731;42.830;24.390;2022-10-23T15:43:48;95100.03;;;15.07;58.48
32243;BME280;18731;42.830;24.390;2022-10-23T15:46:13;95115.06;;;14.96;59.33
32243;BME280;18731;42.830;24.390;2022-10-23T15:48:39;95112.41;;;14.84;59.33
32243;BME280;18731;42.830;24.390;2022-10-23T15:51:05;95109.06;;;14.74;59.05
32243;BME280;18731;42.830;24.390;2022-10-23T15:53:31;95119.50;;;14.64;58.97
32243;BME280;18731;42.830;24.390;2022-10-23T15:55:57;95115.16;;;14.47;59.11
32243;BME280;18731;42.830;24.390;2022-10-23T15:58:24;95122.63;;;14.41;59.38
32243;BME280;18731;42.830;24.390;2022-10-23T16:00:49;95123.84;;;14.32;59.94
32243;BME280;18731;42.830;24.390;2022-10-23T16:03:15;95107.28;;;14.05;60.77
32243;BME280;18731;42.830;24.390;2022-10-23T16:05:40;95140.16;;;14.14;60.96
32243;BME280;18731;42.830;24.390;2022-10-23T16:08:06;95148.22;;;14.02;62.26
32243;BME280;18731;42.830;24.390;2022-10-23T16:10:32;95154.78;;;13.93;62.55
32243;BME280;18731;42.830;24.390;2022-10-23T16:12:57;95157.56;;;13.84;62.66
32243;BME280;18731;42.830;24.390;2022-10-23T16:15:23;95144.97;;;13.64;63.14
32243;BME280;18731;42.830;24.390;2022-10-23T16:17:49;95166.44;;;13.64;63.62
32243;BME280;18731;42.830;24.390;2022-10-23T16:20:15;95162.47;;;13.49;63.91
32243;BME280;18731;42.830;24.390;2022-10-23T16:22:40;95158.72;;;13.29;63.85
32243;BME280;18731;42.830;24.390;2022-10-23T16:25:06;95167.72;;;13.45;63.50
32243;BME280;18731;42.830;24.390;2022-10-23T16:27:32;95174.25;;;13.36;63.45
32243;BME280;18731;42.830;24.390;2022-10-23T16:29:58;95177.94;;;13.31;63.86
32243;BME280;18731;42.830;24.390;2022-10-23T16:32:23;95175.97;;;13.19;64.47
32243;BME280;18731;42.830;24.390;2022-10-23T16:34:49;95163.00;;;13.01;64.56
32243;BME280;18731;42.830;24.390;2022-10-23T16:37:14;95179.19;;;13.04;64.65
32243;BME280;18731;42.830;24.390;2022-10-23T16:39:40;95207.34;;;13.19;64.45
32243;BME280;18731;42.830;24.390;2022-10-23T16:42:05;95211.50;;;13.08;64.81
32243;BME280;18731;42.830;24.390;2022-10-23T16:44:31;95207.91;;;13.04;64.54
32243;BME280;18731;42.830;24.390;2022-10-23T16:46:57;95189.41;;;12.81;65.01
32243;BME280;18731;42.830;24.390;2022-10-23T16:49:23;95190.84;;;12.79;64.90
32243;BME280;18731;42.830;24.390;2022-10-23T16:51:48;95218.03;;;12.89;65.33
32243;BME280;18731;42.830;24.390;2022-10-23T16:54:14;95192.47;;;12.71;65.32
32243;BME280;18731;42.830;24.390;2022-10-23T16:56:40;95212.59;;;12.77;65.38
32243;BME280;18731;42.830;24.390;2022-10-23T16:59:05;95228.94;;;12.84;65.18
32243;BME280;18731;42.830;24.390;2022-10-23T17:01:31;95230.38;;;12.82;65.24
32243;BME280;18731;42.830;24.390;2022-10-23T17:03:58;95241.22;;;12.85;65.08
32243;BME280;18731;42.830;24.390;2022-10-23T17:06:31;95237.63;;;12.81;65.39
32243;BME280;18731;42.830;24.390;2022-10-23T17:08:58;95229.03;;;12.67;65.65
32243;BME280;18731;42.830;24.390;2022-10-23T17:11:26;95240.72;;;12.63;65.85
32243;BME280;18731;42.830;24.390;2022-10-23T17:13:57;95223.47;;;12.43;66.42